createdAt,value
2022-10-14T00:00:53.684Z,14.95
2022-10-14T00:01:50.404Z,15.18
2022-10-14T00:02:47.157Z,14.62
2022-10-14T00:03:44.506Z,15.21
2022-10-14T00:04:41.199Z,15.25
2022-10-14T00:05:41.480Z,14.32
2022-10-14T00:06:38.267Z,15.13
2022-10-14T00:07:34.986Z,15.14
2022-10-14T00:08:31.681Z,15.18
2022-10-14T00:09:28.383Z,15.09
2022-10-14T00:10:25.250Z,14.91
2022-10-14T00:11:28.347Z,14.67
2022-10-14T00:12:25.027Z,14.86
2022-10-14T00:13:21.787Z,14.07
2022-10-14T00:14:21.358Z,14.92
2022-10-14T00:15:18.278Z,14.78
2022-10-14T00:16:24.808Z,14.96
2022-10-14T00:17:21.888Z,14.45
2022-10-14T00:18:18.805Z,14.85
2022-10-14T00:19:15.880Z,14.87
2022-10-14T00:20:12.604Z,14.83
2022-10-14T00:21:09.385Z,14.87
2022-10-14T00:22:06.073Z,14.92
2022-10-14T00:23:02.908Z,14.92
2022-10-14T00:23:59.627Z,14.99
2022-10-14T00:24:56.490Z,14.95
2022-10-14T00:25:53.386Z,14.83
2022-10-14T00:26:50.116Z,14.93
2022-10-14T00:27:46.822Z,14.88
2022-10-14T00:28:43.573Z,13.87
2022-10-14T00:29:40.325Z,14.80
2022-10-14T00:30:37.494Z,14.83
2022-10-14T00:31:35.389Z,14.95
2022-10-14T00:32:32.130Z,15.04
2022-10-14T00:33:29.490Z,15.09
2022-10-14T00:34:26.303Z,15.04
2022-10-14T00:35:23.762Z,14.97
2022-10-14T00:36:23.210Z,14.14
2022-10-14T00:37:20.328Z,14.90
2022-10-14T00:38:17.197Z,15.02
2022-10-14T00:39:13.980Z,14.86
2022-10-14T00:40:11.763Z,14.67
2022-10-14T00:41:12.937Z,14.50
2022-10-14T00:42:15.006Z,14.08
2022-10-14T00:43:14.165Z,14.96
2022-10-14T00:44:10.949Z,14.91
2022-10-14T00:45:15.691Z,14.76
2022-10-14T00:46:12.368Z,14.82
2022-10-14T00:47:09.720Z,14.72
2022-10-14T00:48:08.742Z,14.83
2022-10-14T00:49:44.257Z,14.92
2022-10-14T00:50:45.646Z,14.88
2022-10-14T00:51:49.034Z,14.55
2022-10-14T00:52:46.651Z,14.86
2022-10-14T00:53:44.346Z,14.62
2022-10-14T00:54:48.622Z,14.71
2022-10-14T00:55:46.258Z,14.58
2022-10-14T00:56:45.942Z,14.73
2022-10-14T00:57:44.423Z,14.61
2022-10-14T00:58:43.173Z,14.47
2022-10-14T00:59:40.146Z,14.78
2022-10-14T01:00:37.654Z,14.52
2022-10-14T01:01:34.762Z,14.46
2022-10-14T01:02:31.545Z,14.79
2022-10-14T01:03:28.283Z,14.77
2022-10-14T01:04:26.474Z,14.89
2022-10-14T01:05:31.816Z,14.71
2022-10-14T01:06:40.439Z,14.62
2022-10-14T01:07:54.598Z,14.79
2022-10-14T01:08:51.314Z,14.73
2022-10-14T01:10:00.739Z,14.74
2022-10-14T01:11:06.612Z,14.46
2022-10-14T01:12:41.659Z,14.69
2022-10-14T01:13:53.186Z,14.22
2022-10-14T01:14:52.526Z,14.75
2022-10-14T01:16:30.931Z,14.78
2022-10-14T01:17:33.271Z,14.76
2022-10-14T01:18:45.555Z,14.73
2022-10-14T01:20:06.791Z,14.67
2022-10-14T01:21:19.592Z,14.65
2022-10-14T01:22:24.381Z,14.57
2022-10-14T01:23:52.156Z,14.61
2022-10-14T01:24:55.034Z,14.64
2022-10-14T01:26:10.079Z,14.70
2022-10-14T01:27:24.894Z,14.62
2022-10-14T01:28:49.672Z,14.61
2022-10-14T01:30:11.438Z,14.56
2022-10-14T01:31:18.820Z,14.30
2022-10-14T01:32:24.735Z,14.55
2022-10-14T01:33:28.739Z,14.55
2022-10-14T01:34:41.523Z,14.25
2022-10-14T01:35:56.832Z,14.38
2022-10-14T01:37:05.545Z,14.59
2022-10-14T01:38:09.655Z,13.93
2022-10-14T01:39:15.332Z,14.55
2022-10-14T01:40:26.399Z,14.55
2022-10-14T01:41:28.870Z,14.42
2022-10-14T01:42:35.174Z,14.19
2022-10-14T01:43:33.635Z,14.62
2022-10-14T01:44:35.000Z,14.31
2022-10-14T01:45:36.853Z,14.65
2022-10-14T01:46:38.190Z,14.16
2022-10-14T01:47:39.137Z,14.35
2022-10-14T01:48:43.411Z,14.35
2022-10-14T01:49:47.347Z,13.94
2022-10-14T01:50:49.634Z,14.32
2022-10-14T01:51:55.283Z,14.46
2022-10-14T01:53:03.301Z,13.52
2022-10-14T01:54:12.942Z,14.00
2022-10-14T01:55:17.756Z,13.72
2022-10-14T01:56:17.488Z,14.20
2022-10-14T01:57:22.590Z,14.37
2022-10-14T01:58:23.482Z,14.43
2022-10-14T01:59:23.162Z,14.44
2022-10-14T02:00:20.117Z,14.64
2022-10-14T02:01:17.310Z,14.12
2022-10-14T02:02:14.107Z,12.84
2022-10-14T02:03:14.218Z,14.01
2022-10-14T02:04:20.296Z,14.23
2022-10-14T02:05:31.315Z,14.33
2022-10-14T02:06:36.117Z,13.98
2022-10-14T02:07:40.422Z,14.54
2022-10-14T02:08:48.765Z,14.54
2022-10-14T02:10:01.728Z,14.44
2022-10-14T02:11:14.540Z,14.33
2022-10-14T02:12:46.253Z,12.06
2022-10-14T02:14:01.590Z,14.51
2022-10-14T02:15:27.482Z,14.04
2022-10-14T02:16:40.934Z,13.99
2022-10-14T02:17:58.777Z,14.38
2022-10-14T02:19:13.158Z,14.22
2022-10-14T02:20:33.745Z,14.23
2022-10-14T02:21:40.019Z,13.50
2022-10-14T02:22:49.497Z,13.22
2022-10-14T02:24:03.488Z,14.20
2022-10-14T02:25:08.795Z,14.23
2022-10-14T02:26:07.181Z,14.28
2022-10-14T02:27:10.002Z,13.93
2022-10-14T02:28:11.356Z,14.19
2022-10-14T02:29:08.350Z,14.08
2022-10-14T02:30:07.624Z,14.10
2022-10-14T02:31:10.038Z,13.80
2022-10-14T02:32:09.835Z,14.13
2022-10-14T02:33:07.689Z,14.04
2022-10-14T02:34:10.514Z,14.20
2022-10-14T02:35:11.547Z,14.06
2022-10-14T02:36:13.787Z,13.81
2022-10-14T02:37:13.075Z,14.05
2022-10-14T02:38:10.247Z,14.17
2022-10-14T02:39:12.980Z,13.42
2022-10-14T02:40:25.826Z,13.57
2022-10-14T02:41:28.051Z,13.05
2022-10-14T02:42:25.237Z,14.03
2022-10-14T02:43:22.066Z,14.13
2022-10-14T02:44:19.177Z,14.22
2022-10-14T02:45:16.822Z,13.92
2022-10-14T02:46:13.662Z,14.10
2022-10-14T02:47:10.343Z,14.20
2022-10-14T02:48:07.886Z,13.89
2022-10-14T02:49:04.693Z,14.13
2022-10-14T02:50:01.412Z,14.08
2022-10-14T02:50:58.135Z,13.77
2022-10-14T02:51:55.062Z,13.72
2022-10-14T02:52:51.737Z,14.23
2022-10-14T02:53:48.421Z,14.03
2022-10-14T02:54:45.382Z,13.83
2022-10-14T02:55:42.157Z,14.00
2022-10-14T02:56:38.891Z,14.08
2022-10-14T02:57:35.566Z,14.05
2022-10-14T02:58:32.606Z,13.98
2022-10-14T02:59:29.293Z,14.01
2022-10-14T03:00:26.348Z,14.13
2022-10-14T03:01:23.172Z,14.05
2022-10-14T03:02:20.116Z,14.04
2022-10-14T03:03:17.209Z,14.03
2022-10-14T03:04:13.984Z,14.20
2022-10-14T03:05:10.999Z,14.11
2022-10-14T03:06:07.829Z,13.82
2022-10-14T03:07:04.816Z,14.16
2022-10-14T03:08:01.622Z,13.99
2022-10-14T03:08:58.303Z,13.98
2022-10-14T03:09:54.996Z,14.06
2022-10-14T03:10:51.714Z,14.02
2022-10-14T03:11:48.401Z,14.01
2022-10-14T03:12:45.399Z,13.65
2022-10-14T03:13:42.072Z,14.07
2022-10-14T03:14:38.781Z,14.05
2022-10-14T03:15:35.507Z,14.09
2022-10-14T03:16:32.288Z,14.00
2022-10-14T03:17:29.271Z,13.86
2022-10-14T03:18:26.300Z,13.66
2022-10-14T03:19:22.976Z,14.00
2022-10-14T03:20:19.678Z,13.99
2022-10-14T03:21:16.356Z,13.71
2022-10-14T03:22:13.083Z,13.70
2022-10-14T03:23:09.804Z,13.74
2022-10-14T03:24:06.999Z,13.45
2022-10-14T03:25:04.045Z,13.91
2022-10-14T03:26:00.725Z,13.61
2022-10-14T03:26:57.429Z,13.87
2022-10-14T03:27:54.102Z,13.88
2022-10-14T03:28:50.828Z,13.86
2022-10-14T03:29:47.674Z,13.87
2022-10-14T03:30:44.365Z,13.94
2022-10-14T03:31:41.054Z,13.96
2022-10-14T03:32:37.836Z,13.56
2022-10-14T03:33:34.582Z,13.93
2022-10-14T03:34:31.534Z,13.82
2022-10-14T03:35:28.230Z,13.84
2022-10-14T03:36:25.045Z,13.80
2022-10-14T03:37:21.968Z,13.12
2022-10-14T03:38:18.651Z,13.89
2022-10-14T03:39:15.393Z,13.83
2022-10-14T03:40:12.606Z,13.79
2022-10-14T03:41:09.575Z,13.51
2022-10-14T03:42:06.275Z,13.77
2022-10-14T03:43:03.002Z,13.86
2022-10-14T03:43:59.790Z,13.95
2022-10-14T03:44:56.587Z,13.60
2022-10-14T03:45:53.364Z,13.70
2022-10-14T03:46:50.035Z,13.78
2022-10-14T03:47:46.723Z,13.86
2022-10-14T03:48:43.384Z,13.37
2022-10-14T03:49:40.094Z,12.85
2022-10-14T03:50:36.774Z,12.85
2022-10-14T03:51:33.470Z,13.58
2022-10-14T03:52:30.165Z,13.66
2022-10-14T03:53:26.878Z,13.74
2022-10-14T03:54:23.557Z,13.47
2022-10-14T03:55:20.686Z,13.89
2022-10-14T03:56:17.471Z,13.78
2022-10-14T03:57:14.193Z,13.83
2022-10-14T03:58:12.324Z,13.62
2022-10-14T03:59:09.034Z,13.57
2022-10-14T04:00:06.826Z,13.16
2022-10-14T04:01:04.093Z,13.47
2022-10-14T04:02:00.827Z,13.87
2022-10-14T04:02:57.558Z,13.89
2022-10-14T04:03:54.244Z,13.90
2022-10-14T04:04:50.977Z,13.47
2022-10-14T04:05:47.697Z,13.47
2022-10-14T04:06:44.421Z,13.70
2022-10-14T04:07:41.129Z,13.59
2022-10-14T04:08:37.896Z,13.64
2022-10-14T04:09:34.577Z,13.56
2022-10-14T04:10:31.369Z,13.30
2022-10-14T04:11:28.053Z,13.62
2022-10-14T04:12:24.865Z,13.33
2022-10-14T04:13:22.797Z,13.66
2022-10-14T04:14:19.490Z,13.64
2022-10-14T04:15:16.554Z,13.39
2022-10-14T04:16:13.343Z,13.70
2022-10-14T04:17:10.032Z,13.66
2022-10-14T04:18:06.749Z,13.24
2022-10-14T04:19:04.142Z,13.55
2022-10-14T04:20:00.928Z,13.71
2022-10-14T04:21:06.929Z,13.59
2022-10-14T04:22:03.737Z,13.47
2022-10-14T04:23:00.771Z,12.73
2022-10-14T04:23:57.479Z,13.41
2022-10-14T04:24:54.174Z,13.60
2022-10-14T04:25:50.881Z,13.70
2022-10-14T04:26:52.180Z,13.74
2022-10-14T04:27:48.886Z,13.70
2022-10-14T04:28:45.994Z,12.86
2022-10-14T04:29:42.790Z,13.18
2022-10-14T04:30:39.479Z,13.76
2022-10-14T04:31:36.159Z,13.55
2022-10-14T04:32:32.831Z,13.63
2022-10-14T04:33:29.645Z,13.75
2022-10-14T04:34:26.530Z,13.71
2022-10-14T04:35:23.193Z,13.40
2022-10-14T04:36:19.894Z,13.50
2022-10-14T04:37:16.593Z,13.62
2022-10-14T04:38:13.308Z,12.68
2022-10-14T04:39:11.217Z,13.45
2022-10-14T04:40:08.710Z,13.53
2022-10-14T04:41:05.496Z,13.49
2022-10-14T04:42:02.346Z,13.70
2022-10-14T04:42:59.359Z,13.23
2022-10-14T04:43:56.058Z,13.65
2022-10-14T04:44:52.773Z,13.68
2022-10-14T04:45:49.806Z,13.46
2022-10-14T04:46:46.545Z,13.59
2022-10-14T04:47:48.317Z,13.29
2022-10-14T04:48:47.637Z,13.65
2022-10-14T04:49:44.405Z,12.97
2022-10-14T04:50:41.746Z,13.66
2022-10-14T04:51:38.521Z,12.76
2022-10-14T04:52:35.233Z,13.60
2022-10-14T04:53:31.949Z,13.76
2022-10-14T04:54:28.722Z,13.67
2022-10-14T04:55:25.401Z,13.74
2022-10-14T04:56:22.099Z,13.26
2022-10-14T04:57:18.800Z,13.72
2022-10-14T04:58:16.916Z,13.65
2022-10-14T04:59:14.064Z,13.65
2022-10-14T05:00:12.299Z,13.52
2022-10-14T05:01:09.075Z,13.47
2022-10-14T05:02:05.860Z,12.70
2022-10-14T05:03:02.590Z,12.99
2022-10-14T05:03:59.305Z,13.65
2022-10-14T05:04:56.548Z,13.88
2022-10-14T05:05:53.289Z,13.52
2022-10-14T05:06:49.995Z,13.75
2022-10-14T05:07:46.728Z,13.83
2022-10-14T05:08:43.471Z,13.85
2022-10-14T05:09:41.638Z,13.88
2022-10-14T05:10:39.813Z,13.68
2022-10-14T05:11:36.704Z,13.52
2022-10-14T05:12:33.483Z,13.57
2022-10-14T05:13:30.862Z,13.57
2022-10-14T05:14:27.577Z,13.58
2022-10-14T05:15:24.269Z,13.84
2022-10-14T05:16:21.055Z,13.83
2022-10-14T05:17:17.785Z,13.88
2022-10-14T05:18:14.469Z,13.83
2022-10-14T05:19:11.180Z,13.62
2022-10-14T05:20:08.586Z,13.86
2022-10-14T05:21:05.460Z,13.85
2022-10-14T05:22:02.350Z,13.84
2022-10-14T05:22:59.090Z,12.94
2022-10-14T05:23:55.769Z,13.50
2022-10-14T05:24:52.493Z,13.85
2022-10-14T05:25:49.236Z,13.52
2022-10-14T05:26:46.000Z,12.92
2022-10-14T05:27:42.959Z,13.90
2022-10-14T05:28:39.831Z,13.95
2022-10-14T05:29:36.562Z,14.02
2022-10-14T05:30:34.816Z,13.95
2022-10-14T05:31:31.774Z,13.60
2022-10-14T05:32:28.986Z,13.87
2022-10-14T05:33:25.667Z,13.42
2022-10-14T05:34:24.634Z,13.69
2022-10-14T05:35:39.840Z,13.96
2022-10-14T05:36:38.196Z,14.01
2022-10-14T05:37:34.987Z,13.70
2022-10-14T05:38:33.738Z,13.93
2022-10-14T05:39:30.666Z,13.94
2022-10-14T05:40:27.394Z,13.71
2022-10-14T05:41:25.043Z,13.91
2022-10-14T05:42:22.135Z,13.13
2022-10-14T05:43:19.215Z,13.45
2022-10-14T05:44:15.883Z,13.66
2022-10-14T05:45:12.583Z,13.66
2022-10-14T05:46:09.247Z,13.91
2022-10-14T05:47:05.928Z,13.45
2022-10-14T05:48:02.642Z,14.08
2022-10-14T05:49:00.397Z,13.77
2022-10-14T05:49:57.119Z,13.81
2022-10-14T05:50:54.331Z,12.62
2022-10-14T05:51:51.104Z,13.83
2022-10-14T05:52:48.142Z,13.90
2022-10-14T05:53:44.847Z,14.09
2022-10-14T05:54:41.577Z,14.04
2022-10-14T05:55:38.330Z,13.85
2022-10-14T05:56:35.049Z,14.14
2022-10-14T05:57:33.591Z,14.27
2022-10-14T05:58:30.289Z,13.97
2022-10-14T05:59:29.649Z,14.07
2022-10-14T06:00:26.839Z,14.24
2022-10-14T06:01:24.001Z,13.87
2022-10-14T06:02:20.973Z,14.31
2022-10-14T06:03:18.032Z,14.22
2022-10-14T06:04:20.390Z,14.01
2022-10-14T06:05:17.607Z,14.23
2022-10-14T06:06:14.771Z,14.05
2022-10-14T06:07:11.642Z,14.22
2022-10-14T06:08:08.955Z,14.25
2022-10-14T06:09:10.382Z,14.34
2022-10-14T06:10:08.330Z,14.27
2022-10-14T06:11:05.437Z,14.27
2022-10-14T06:12:03.624Z,14.21
2022-10-14T06:13:00.295Z,14.34
2022-10-14T06:13:56.989Z,14.37
2022-10-14T06:14:53.694Z,13.87
2022-10-14T06:15:50.391Z,14.29
2022-10-14T06:16:50.178Z,14.14
2022-10-14T06:17:47.010Z,14.06
2022-10-14T06:18:43.704Z,14.42
2022-10-14T06:19:40.376Z,14.47
2022-10-14T06:20:37.489Z,13.94
2022-10-14T06:21:36.831Z,14.36
2022-10-14T06:22:33.575Z,14.35
2022-10-14T06:23:30.969Z,14.09
2022-10-14T06:24:27.671Z,14.18
2022-10-14T06:25:24.353Z,13.99
2022-10-14T06:26:21.105Z,14.44
2022-10-14T06:27:17.966Z,14.39
2022-10-14T06:28:14.973Z,14.50
2022-10-14T06:29:11.735Z,14.45
2022-10-14T06:30:09.298Z,14.10
2022-10-14T06:31:06.835Z,14.67
2022-10-14T06:32:05.598Z,14.46
2022-10-14T06:33:02.298Z,14.18
2022-10-14T06:33:59.166Z,14.15
2022-10-14T06:34:55.968Z,14.17
2022-10-14T06:35:52.751Z,14.20
2022-10-14T06:36:49.581Z,14.61
2022-10-14T06:37:47.111Z,13.80
2022-10-14T06:38:43.793Z,14.68
2022-10-14T06:39:41.890Z,14.70
2022-10-14T06:40:38.542Z,13.71
2022-10-14T06:41:35.315Z,14.53
2022-10-14T06:42:34.422Z,14.38
2022-10-14T06:43:31.309Z,14.70
2022-10-14T06:44:28.102Z,14.60
2022-10-14T06:45:24.835Z,14.40
2022-10-14T06:46:21.747Z,14.43
2022-10-14T06:47:18.448Z,14.14
2022-10-14T06:48:15.565Z,14.54
2022-10-14T06:49:12.551Z,14.53
2022-10-14T06:50:09.381Z,14.74
2022-10-14T06:51:06.335Z,14.49
2022-10-14T06:52:03.146Z,13.62
2022-10-14T06:52:59.908Z,14.60
2022-10-14T06:53:56.707Z,14.63
2022-10-14T06:54:53.817Z,14.56
2022-10-14T06:55:57.894Z,14.41
2022-10-14T06:56:54.558Z,14.82
2022-10-14T06:57:51.313Z,14.71
2022-10-14T06:58:48.056Z,14.84
2022-10-14T06:59:45.119Z,14.81
2022-10-14T07:00:45.705Z,14.71
2022-10-14T07:01:44.788Z,14.89
2022-10-14T07:02:41.533Z,14.64
2022-10-14T07:03:39.347Z,14.53
2022-10-14T07:04:36.078Z,14.67
2022-10-14T07:05:32.784Z,14.78
2022-10-14T07:06:29.461Z,14.88
2022-10-14T07:07:26.151Z,14.81
2022-10-14T07:08:22.824Z,13.92
2022-10-14T07:09:19.535Z,14.83
2022-10-14T07:10:16.274Z,14.75
2022-10-14T07:11:15.287Z,14.70
2022-10-14T07:12:12.013Z,14.93
2022-10-14T07:13:08.716Z,14.92
2022-10-14T07:14:05.430Z,14.22
2022-10-14T07:15:02.238Z,15.02
2022-10-14T07:15:58.992Z,15.02
2022-10-14T07:16:55.729Z,14.78
2022-10-14T07:17:52.480Z,15.14
2022-10-14T07:18:49.687Z,15.18
2022-10-14T07:19:46.490Z,15.19
2022-10-14T07:20:43.255Z,15.12
2022-10-14T07:21:39.993Z,14.80
2022-10-14T07:22:38.901Z,14.96
2022-10-14T07:23:36.054Z,15.11
2022-10-14T07:24:32.818Z,15.01
2022-10-14T07:25:29.513Z,15.24
2022-10-14T07:26:26.316Z,15.30
2022-10-14T07:27:23.404Z,15.24
2022-10-14T07:28:20.357Z,15.21
2022-10-14T07:29:17.422Z,15.21
2022-10-14T07:30:17.378Z,15.44
2022-10-14T07:31:15.372Z,15.35
2022-10-14T07:32:12.079Z,15.33
2022-10-14T07:33:08.810Z,14.62
2022-10-14T07:34:05.635Z,15.09
2022-10-14T07:35:02.594Z,15.62
2022-10-14T07:36:05.399Z,15.65
2022-10-14T07:37:02.324Z,14.68
2022-10-14T07:38:00.120Z,15.69
2022-10-14T07:38:56.811Z,15.46
2022-10-14T07:39:55.268Z,15.47
2022-10-14T07:40:59.966Z,15.60
2022-10-14T07:41:56.654Z,15.43
2022-10-14T07:42:53.332Z,15.64
2022-10-14T07:43:54.331Z,15.52
2022-10-14T07:44:53.983Z,15.50
2022-10-14T07:45:51.269Z,15.66
2022-10-14T07:46:47.950Z,15.35
2022-10-14T07:47:48.172Z,15.45
2022-10-14T07:48:56.697Z,15.50
2022-10-14T07:49:54.078Z,15.30
2022-10-14T07:50:51.045Z,15.45
2022-10-14T07:51:48.309Z,15.51
2022-10-14T07:52:45.455Z,14.95
2022-10-14T07:53:42.234Z,15.14
2022-10-14T07:54:38.960Z,15.35
2022-10-14T07:55:35.711Z,14.99
2022-10-14T07:56:32.490Z,15.28
2022-10-14T07:57:29.199Z,15.27
2022-10-14T07:58:28.958Z,15.51
2022-10-14T07:59:25.898Z,15.65
2022-10-14T08:00:23.010Z,15.66
2022-10-14T08:01:20.153Z,15.49
2022-10-14T08:02:16.866Z,15.48
2022-10-14T08:03:13.713Z,15.64
2022-10-14T08:04:11.933Z,15.54
2022-10-14T08:05:32.819Z,15.41
2022-10-14T08:06:25.470Z,15.56
2022-10-14T08:07:24.265Z,15.45
2022-10-14T08:08:23.341Z,15.53
2022-10-14T08:09:38.295Z,15.58
2022-10-14T08:10:36.603Z,15.52
2022-10-14T08:11:33.294Z,15.56
2022-10-14T08:12:30.000Z,15.28
2022-10-14T08:13:26.709Z,15.38
2022-10-14T08:14:23.455Z,15.47
2022-10-14T08:15:20.178Z,15.41
2022-10-14T08:16:25.576Z,15.64
2022-10-14T08:17:22.326Z,15.65
2022-10-14T08:18:19.051Z,15.74
2022-10-14T08:19:15.749Z,15.68
2022-10-14T08:20:12.574Z,15.61
2022-10-14T08:21:09.444Z,14.94
2022-10-14T08:22:06.140Z,15.06
2022-10-14T08:23:03.073Z,15.35
2022-10-14T08:24:00.019Z,15.50
2022-10-14T08:24:56.727Z,15.48
2022-10-14T08:25:53.467Z,15.79
2022-10-14T08:26:55.702Z,15.60
2022-10-14T08:27:54.275Z,15.40
2022-10-14T08:28:51.809Z,15.58
2022-10-14T08:29:48.636Z,15.67
2022-10-14T08:30:45.390Z,15.70
2022-10-14T08:31:42.093Z,15.58
2022-10-14T08:32:38.803Z,15.60
2022-10-14T08:33:35.485Z,15.74
2022-10-14T08:34:32.181Z,15.61
2022-10-14T08:35:28.945Z,15.37
2022-10-14T08:36:25.778Z,15.82
2022-10-14T08:37:23.126Z,15.87
2022-10-14T08:38:25.064Z,15.97
2022-10-14T08:39:22.024Z,15.75
2022-10-14T08:40:18.814Z,15.56
2022-10-14T08:41:23.257Z,15.93
2022-10-14T08:43:07.635Z,16.01
2022-10-14T08:44:23.100Z,15.95
2022-10-14T08:45:31.953Z,16.09
2022-10-14T08:46:52.195Z,15.96
2022-10-14T08:47:49.690Z,15.74
2022-10-14T08:48:49.686Z,15.02
2022-10-14T08:49:58.902Z,15.94
2022-10-14T08:51:06.753Z,16.08
2022-10-14T08:52:15.214Z,16.18
2022-10-14T08:53:56.193Z,16.17
2022-10-14T08:55:03.976Z,16.04
2022-10-14T08:56:02.422Z,15.65
2022-10-14T08:57:00.978Z,15.73
2022-10-14T08:59:24.137Z,16.17
2022-10-14T09:00:22.255Z,16.22
2022-10-14T09:01:29.525Z,15.64
2022-10-14T09:02:46.871Z,16.22
2022-10-14T09:03:43.794Z,16.25
2022-10-14T09:04:40.552Z,15.95
2022-10-14T09:05:40.053Z,15.07
2022-10-14T09:06:42.855Z,15.93
2022-10-14T09:07:39.746Z,16.21
2022-10-14T09:08:42.550Z,16.11
2022-10-14T09:09:46.317Z,15.48
2022-10-14T09:10:44.230Z,16.30
2022-10-14T09:11:45.356Z,16.45
2022-10-14T09:12:42.998Z,16.43
2022-10-14T09:13:44.116Z,16.20
2022-10-14T09:14:49.475Z,15.41
2022-10-14T09:15:55.007Z,15.89
2022-10-14T09:17:00.984Z,15.32
2022-10-14T09:19:18.724Z,16.43
2022-10-14T09:20:22.191Z,16.45
2022-10-14T09:21:48.068Z,16.11
2022-10-14T09:23:00.838Z,16.00
2022-10-14T09:24:12.416Z,16.41
2022-10-14T09:25:18.271Z,16.28
2022-10-14T09:26:20.082Z,15.95
2022-10-14T09:27:22.469Z,15.92
2022-10-14T09:28:19.680Z,15.74
2022-10-14T09:29:39.005Z,16.44
2022-10-14T09:30:40.559Z,16.47
2022-10-14T09:31:37.374Z,16.25
2022-10-14T09:32:41.327Z,16.36
2022-10-14T09:33:42.276Z,15.90
2022-10-14T09:34:45.868Z,16.42
2022-10-14T09:35:44.052Z,15.63
2022-10-14T09:36:41.382Z,16.44
2022-10-14T09:37:39.381Z,15.93
2022-10-14T09:38:37.578Z,16.17
2022-10-14T09:39:40.586Z,16.10
2022-10-14T09:40:42.861Z,16.48
2022-10-14T09:41:39.557Z,16.40
2022-10-14T09:43:03.060Z,16.49
2022-10-14T09:44:23.804Z,16.65
2022-10-14T09:45:23.261Z,16.01
2022-10-14T09:46:20.873Z,16.54
2022-10-14T09:47:19.243Z,16.71
2022-10-14T09:48:39.456Z,16.53
2022-10-14T09:49:43.962Z,16.26
2022-10-14T09:50:48.514Z,16.26
2022-10-14T09:51:46.159Z,16.55
2022-10-14T09:52:42.954Z,16.50
2022-10-14T09:53:45.380Z,16.60
2022-10-14T09:54:42.572Z,16.71
2022-10-14T09:55:53.452Z,16.78
2022-10-14T09:56:59.909Z,16.48
2022-10-14T09:58:04.428Z,15.77
2022-10-14T09:59:02.436Z,16.38
2022-10-14T10:00:03.923Z,16.75
2022-10-14T10:01:02.634Z,16.81
2022-10-14T10:02:04.122Z,17.10
2022-10-14T10:03:01.046Z,16.91
2022-10-14T10:04:32.401Z,17.05
2022-10-14T10:05:33.249Z,16.89
2022-10-14T10:06:29.991Z,16.51
2022-10-14T10:07:35.252Z,16.84
2022-10-14T10:08:34.035Z,16.61
2022-10-14T10:09:30.751Z,16.78
2022-10-14T10:10:30.699Z,16.61
2022-10-14T10:11:30.554Z,16.32
2022-10-14T10:12:35.850Z,16.55
2022-10-14T10:13:36.401Z,16.59
2022-10-14T10:14:34.032Z,16.55
2022-10-14T10:15:30.928Z,16.77
2022-10-14T10:16:34.742Z,16.64
2022-10-14T10:17:36.042Z,16.82
2022-10-14T10:18:35.421Z,16.47
2022-10-14T10:19:35.486Z,16.87
2022-10-14T10:20:33.449Z,17.02
2022-10-14T10:21:30.746Z,17.07
2022-10-14T10:22:34.076Z,16.09
2022-10-14T10:23:31.211Z,17.27
2022-10-14T10:24:30.851Z,17.12
2022-10-14T10:26:42.922Z,16.59
2022-10-14T10:27:49.499Z,17.00
2022-10-14T10:28:49.238Z,16.90
2022-10-14T10:29:46.010Z,17.09
2022-10-14T10:31:06.655Z,17.06
2022-10-14T10:32:23.120Z,16.98
2022-10-14T10:33:32.664Z,16.99
2022-10-14T10:34:32.393Z,16.95
2022-10-14T10:35:56.299Z,17.13
2022-10-14T10:37:30.194Z,17.27
2022-10-14T10:38:41.802Z,16.70
2022-10-14T10:40:17.151Z,16.81
2022-10-14T10:41:27.202Z,17.21
2022-10-14T10:42:45.953Z,16.98
2022-10-14T10:43:57.914Z,17.03
2022-10-14T10:45:16.396Z,17.23
2022-10-14T10:46:31.207Z,17.09
2022-10-14T10:47:33.711Z,17.30
2022-10-14T10:49:01.618Z,17.13
2022-10-14T10:50:45.782Z,17.29
2022-10-14T10:51:55.604Z,17.37
2022-10-14T10:53:04.093Z,17.40
2022-10-14T10:54:02.472Z,17.54
2022-10-14T10:55:25.348Z,17.45
2022-10-14T10:56:43.620Z,17.49
2022-10-14T10:57:53.234Z,17.26
2022-10-14T10:59:12.673Z,17.29
2022-10-14T11:00:21.196Z,17.23
2022-10-14T11:01:36.614Z,17.25
2022-10-14T11:02:50.629Z,17.29
2022-10-14T11:04:09.017Z,17.38
2022-10-14T11:05:53.956Z,17.29
2022-10-14T11:07:31.251Z,17.28
2022-10-14T11:08:58.935Z,17.19
2022-10-14T11:10:48.400Z,17.22
2022-10-14T11:12:12.902Z,17.43
2022-10-14T11:13:35.834Z,17.77
2022-10-14T11:14:36.825Z,17.65
2022-10-14T11:15:50.373Z,17.67
2022-10-14T11:17:09.706Z,17.67
2022-10-14T11:18:21.256Z,17.90
2022-10-14T11:19:26.967Z,17.88
2022-10-14T11:20:29.984Z,17.83
2022-10-14T11:21:48.399Z,17.38
2022-10-14T11:23:04.712Z,17.30
2022-10-14T11:24:07.028Z,16.96
2022-10-14T11:25:39.236Z,16.60
2022-10-14T11:26:45.960Z,17.23
2022-10-14T11:28:07.474Z,17.03
2022-10-14T11:29:24.345Z,17.26
2022-10-14T11:30:39.255Z,16.75
2022-10-14T11:31:54.425Z,17.26
2022-10-14T11:32:54.089Z,17.49
2022-10-14T11:34:12.073Z,17.56
2022-10-14T11:35:20.722Z,17.74
2022-10-14T11:37:13.970Z,16.99
2022-10-14T11:38:22.257Z,17.03
2022-10-14T11:39:24.614Z,17.04
2022-10-14T11:40:30.846Z,16.60
2022-10-14T11:41:52.185Z,16.94
2022-10-14T11:42:58.811Z,16.85
2022-10-14T11:44:14.039Z,17.22
2022-10-14T11:45:39.294Z,16.98
2022-10-14T11:46:42.454Z,17.04
2022-10-14T11:47:44.179Z,16.90
2022-10-14T11:48:58.258Z,17.23
2022-10-14T11:50:18.301Z,17.41
2022-10-14T11:51:45.017Z,17.04
2022-10-14T11:52:50.839Z,17.27
2022-10-14T11:53:54.037Z,17.42
2022-10-14T11:55:12.284Z,16.92
2022-10-14T11:56:35.565Z,16.80
2022-10-14T11:57:49.089Z,16.74
2022-10-14T11:58:51.950Z,17.00
2022-10-14T12:00:33.647Z,16.98
2022-10-14T12:01:41.049Z,16.41
2022-10-14T12:03:04.101Z,17.29
2022-10-14T12:04:15.673Z,17.26
2022-10-14T12:05:23.981Z,17.28
2022-10-14T12:06:38.293Z,17.32
2022-10-14T12:08:05.347Z,17.29
2022-10-14T12:09:22.306Z,17.33
2022-10-14T12:10:32.217Z,17.23
2022-10-14T12:11:49.331Z,17.42
2022-10-14T12:12:46.217Z,17.16
2022-10-14T12:13:54.275Z,17.15
2022-10-14T12:14:58.678Z,17.15
2022-10-14T12:15:55.474Z,17.13
2022-10-14T12:16:54.975Z,16.62
2022-10-14T12:17:59.845Z,17.27
2022-10-14T12:18:58.245Z,17.23
2022-10-14T12:19:56.610Z,16.77
2022-10-14T12:21:02.858Z,17.39
2022-10-14T12:22:02.513Z,17.31
2022-10-14T12:23:03.059Z,17.32
2022-10-14T12:24:05.774Z,17.41
2022-10-14T12:25:17.371Z,17.35
2022-10-14T12:26:20.099Z,17.48
2022-10-14T12:27:20.359Z,16.69
2022-10-14T12:28:20.639Z,17.42
2022-10-14T12:29:50.693Z,17.61
2022-10-14T12:30:47.903Z,17.60
2022-10-14T12:32:16.605Z,17.52
2022-10-14T12:33:22.337Z,17.37
2022-10-14T12:34:38.650Z,17.29
2022-10-14T12:36:00.980Z,17.49
2022-10-14T12:36:57.923Z,17.05
2022-10-14T12:38:03.559Z,17.24
2022-10-14T12:39:18.742Z,16.49
2022-10-14T12:40:15.384Z,17.45
2022-10-14T12:41:38.277Z,16.92
2022-10-14T12:42:44.118Z,17.43
2022-10-14T12:43:42.117Z,17.45
2022-10-14T12:44:56.273Z,17.17
2022-10-14T12:46:13.303Z,17.44
2022-10-14T12:47:26.806Z,17.26
2022-10-14T12:48:27.601Z,17.10
2022-10-14T12:49:36.535Z,17.09
2022-10-14T12:51:14.757Z,17.27
2022-10-14T12:52:22.285Z,17.02
2022-10-14T12:53:41.674Z,17.06
2022-10-14T12:54:48.456Z,16.88
2022-10-14T12:55:58.227Z,16.34
2022-10-14T12:57:02.819Z,17.27
2022-10-14T12:58:02.945Z,16.25
2022-10-14T12:59:04.982Z,16.52
2022-10-14T13:00:08.128Z,17.42
2022-10-14T13:01:19.004Z,17.20
2022-10-14T13:02:32.481Z,16.98
2022-10-14T13:03:36.797Z,16.71
2022-10-14T13:04:33.839Z,16.91
2022-10-14T13:05:42.725Z,17.19
2022-10-14T13:06:43.054Z,17.17
2022-10-14T13:07:44.356Z,16.37
2022-10-14T13:08:41.361Z,17.36
2022-10-14T13:09:38.365Z,17.27
2022-10-14T13:10:41.851Z,17.29
2022-10-14T13:11:45.596Z,17.34
2022-10-14T13:12:43.287Z,17.18
2022-10-14T13:13:40.576Z,17.34
2022-10-14T13:15:28.186Z,17.21
2022-10-14T13:16:24.833Z,17.25
2022-10-14T13:17:47.012Z,17.18
2022-10-14T13:18:43.708Z,17.33
2022-10-14T13:19:43.562Z,17.10
2022-10-14T13:20:46.309Z,17.25
2022-10-14T13:21:42.981Z,17.30
2022-10-14T13:22:40.482Z,17.24
2022-10-14T13:23:47.489Z,17.12
2022-10-14T13:24:44.373Z,17.17
2022-10-14T13:25:43.378Z,16.96